Time;durP1;ratioP1;P1;durP2;ratioP2;P2;SDS_P1;SDS_P2;PMS_P1;PMS_P2;Temp;Humidity;BMP_temperature;BMP_pressure;BME280_temperature;BME280_humidity;BME280_pressure;Samples;Min_cycle;Max_cycle;Signal;HPM_P1;HPM_P2
2023/02/07 00:02:03;;;;;;;18.60;10.80;;;-1.40;99.90;;;;;;5060108;28;20309;-83
2023/02/07 00:04:29;;;;;;;19.97;11.67;;;-1.30;99.90;;;;;;5055501;28;20341;-84
2023/02/07 00:06:56;;;;;;;19.83;11.57;;;-1.30;99.90;;;;;;5057304;28;20206;-83
2023/02/07 00:09:23;;;;;;;20.10;11.87;;;-1.30;99.90;;;;;;5057758;28;20227;-83
2023/02/07 00:11:50;;;;;;;18.47;10.97;;;-1.40;99.90;;;;;;5056852;28;20314;-83
2023/02/07 00:14:17;;;;;;;19.13;11.50;;;-1.50;99.90;;;;;;5056728;28;20227;-83
2023/02/07 00:16:43;;;;;;;19.90;12.30;;;-1.50;99.90;;;;;;5057784;28;20297;-83
2023/02/07 00:19:12;;;;;;;16.63;10.23;;;-1.50;99.90;;;;;;5057831;28;20231;-83
2023/02/07 00:21:38;;;;;;;19.37;10.83;;;-1.60;99.90;;;;;;5055752;28;20223;-83
2023/02/07 00:24:06;;;;;;;18.87;10.83;;;-1.60;99.90;;;;;;5055743;28;20302;-83
2023/02/07 00:26:33;;;;;;;19.90;11.57;;;-1.70;99.90;;;;;;5059132;28;20267;-84
2023/02/07 00:28:59;;;;;;;18.03;11.13;;;-1.60;99.90;;;;;;5061389;28;20293;-84
2023/02/07 00:31:29;;;;;;;18.30;11.50;;;-1.60;99.90;;;;;;5069635;28;20301;-84
2023/02/07 00:33:59;;;;;;;19.50;11.33;;;-1.50;99.90;;;;;;5063573;28;20282;-83
2023/02/07 00:36:29;;;;;;;19.40;11.97;;;-1.40;99.90;;;;;;5059348;28;20222;-83
2023/02/07 00:38:57;;;;;;;20.50;12.13;;;-1.50;99.90;;;;;;5059487;28;20267;-83
2023/02/07 00:41:24;;;;;;;28.80;12.83;;;-1.50;99.90;;;;;;5060740;28;20298;-83
2023/02/07 00:43:51;;;;;;;20.03;11.80;;;-1.60;99.90;;;;;;5059010;28;20219;-84
2023/02/07 00:46:18;;;;;;;20.90;12.50;;;-1.50;99.90;;;;;;5059327;28;20287;-84
2023/02/07 00:48:45;;;;;;;21.23;12.70;;;-1.60;99.90;;;;;;5059914;28;20290;-84
2023/02/07 00:51:13;;;;;;;21.20;12.70;;;-1.50;99.90;;;;;;5058067;28;20674;-84
2023/02/07 00:53:43;;;;;;;22.10;13.57;;;-1.50;99.90;;;;;;5056623;28;20265;-83
2023/02/07 00:56:10;;;;;;;23.73;12.90;;;-1.50;99.90;;;;;;5058427;28;20199;-84
2023/02/07 00:58:37;;;;;;;22.40;13.93;;;-1.60;99.90;;;;;;5057103;28;20616;-83
2023/02/07 01:01:04;;;;;;;23.17;13.90;;;-1.60;99.90;;;;;;5056685;28;20310;-83
2023/02/07 01:03:32;;;;;;;21.97;13.40;;;-1.50;99.90;;;;;;5058360;28;20295;-83
2023/02/07 01:05:58;;;;;;;22.43;13.70;;;-1.50;99.90;;;;;;5058673;28;20259;-84
2023/02/07 01:08:25;;;;;;;19.83;12.57;;;-1.70;99.90;;;;;;5057161;28;20662;-84
2023/02/07 01:10:54;;;;;;;20.60;13.20;;;-1.70;99.90;;;;;;5057908;28;20203;-84
2023/02/07 01:13:20;;;;;;;21.57;13.37;;;-1.70;99.90;;;;;;5057300;28;20690;-83
2023/02/07 01:15:48;;;;;;;24.43;13.97;;;-1.80;99.90;;;;;;5057404;28;20315;-84
2023/02/07 01:18:15;;;;;;;20.90;12.60;;;-1.70;99.90;;;;;;5058741;28;20263;-84
2023/02/07 01:20:42;;;;;;;20.40;12.97;;;-1.70;99.90;;;;;;5057919;28;20203;-84
2023/02/07 01:23:10;;;;;;;20.03;12.90;;;-1.70;99.90;;;;;;5057580;28;20219;-84
2023/02/07 01:25:38;;;;;;;20.63;13.43;;;-1.70;99.90;;;;;;5056992;28;20632;-84
2023/02/07 01:28:07;;;;;;;20.60;12.83;;;-1.70;99.90;;;;;;5057535;28;20667;-83
2023/02/07 01:30:34;;;;;;;20.73;12.27;;;-1.80;99.90;;;;;;5057078;28;20364;-84
2023/02/07 01:33:01;;;;;;;21.00;12.63;;;-1.70;99.90;;;;;;5058093;28;20687;-84
2023/02/07 01:35:28;;;;;;;19.00;11.77;;;-1.70;99.90;;;;;;5058321;28;20558;-84
2023/02/07 01:37:57;;;;;;;21.17;12.73;;;-1.60;99.90;;;;;;5056051;28;20262;-84
2023/02/07 01:40:24;;;;;;;19.67;11.77;;;-1.60;99.90;;;;;;5070873;28;20210;-84
2023/02/07 01:42:51;;;;;;;21.57;12.70;;;-1.60;99.90;;;;;;5057788;28;20241;-84
2023/02/07 01:45:32;;;;;;;21.50;12.43;;;-1.70;99.90;;;;;;5057588;28;20282;-84
2023/02/07 01:48:07;;;;;;;19.80;12.00;;;-1.70;99.90;;;;;;5057503;28;20277;-84
2023/02/07 01:50:35;;;;;;;21.10;12.57;;;-1.70;99.90;;;;;;5056809;28;20337;-84
2023/02/07 01:53:04;;;;;;;21.07;12.13;;;-1.70;99.90;;;;;;5056771;28;20712;-84
2023/02/07 01:55:34;;;;;;;18.97;11.60;;;-1.70;99.90;;;;;;5058247;28;20219;-84
2023/02/07 01:58:04;;;;;;;20.17;11.10;;;-1.70;99.90;;;;;;5058861;28;20195;-84
2023/02/07 02:00:32;;;;;;;19.83;11.27;;;-1.80;99.90;;;;;;5057289;28;20289;-85
2023/02/07 02:03:00;;;;;;;20.37;11.43;;;-1.90;99.90;;;;;;5058780;28;20258;-85
2023/02/07 02:05:28;;;;;;;19.20;11.37;;;-2.00;99.90;;;;;;5057157;28;20231;-84
2023/02/07 02:07:55;;;;;;;19.17;11.40;;;-2.00;99.90;;;;;;5056873;28;20203;-84
2023/02/07 02:10:30;;;;;;;19.67;11.27;;;-1.80;99.90;;;;;;5058695;28;20297;-84
2023/02/07 02:13:12;;;;;;;17.73;10.57;;;-1.90;99.90;;;;;;5057738;28;20237;-84
2023/02/07 02:15:51;;;;;;;19.67;11.20;;;-1.90;99.90;;;;;;5056654;28;20287;-84
2023/02/07 02:18:41;;;;;;;18.90;11.07;;;-1.90;99.90;;;;;;5058508;28;20549;-84
2023/02/07 02:21:37;;;;;;;21.40;11.80;;;-1.80;99.90;;;;;;5058237;28;20661;-84
2023/02/07 02:24:29;;;;;;;20.00;11.93;;;-1.90;99.90;;;;;;5058666;28;20282;-85
2023/02/07 02:27:03;;;;;;;19.90;11.97;;;-1.90;99.90;;;;;;5058802;28;20281;-85
2023/02/07 02:30:07;;;;;;;20.47;11.97;;;-2.00;99.90;;;;;;5058362;28;20203;-84
2023/02/07 02:33:34;;;;;;;20.17;11.03;;;-2.10;99.90;;;;;;5057522;28;20285;-84
2023/02/07 02:36:11;;;;;;;17.53;10.57;;;-2.00;99.90;;;;;;4989415;28;20218;-84
2023/02/07 02:38:45;;;;;;;18.30;11.50;;;-2.00;99.90;;;;;;5035566;28;20259;-84
2023/02/07 02:41:14;;;;;;;19.23;11.77;;;-2.00;99.90;;;;;;5037994;28;20484;-84
2023/02/07 02:43:46;;;;;;;18.20;11.10;;;-2.10;99.90;;;;;;5057572;28;20297;-84
2023/02/07 02:46:18;;;;;;;18.90;11.60;;;-2.30;99.90;;;;;;5058311;28;20266;-84
2023/02/07 02:48:45;;;;;;;18.17;10.90;;;-2.40;99.90;;;;;;5058036;28;20281;-84
2023/02/07 02:51:13;;;;;;;17.47;10.33;;;-2.30;99.90;;;;;;5058034;28;20282;-84
2023/02/07 02:53:40;;;;;;;18.13;10.60;;;-2.30;99.90;;;;;;5058093;28;20242;-84
2023/02/07 02:56:46;;;;;;;18.43;11.20;;;-2.50;99.90;;;;;;5056813;28;20231;-84
2023/02/07 02:59:35;;;;;;;18.00;10.80;;;-2.60;99.90;;;;;;5050452;28;20289;-84
2023/02/07 03:02:16;;;;;;;18.37;11.43;;;-2.50;99.90;;;;;;5042771;28;20598;-84
2023/02/07 03:04:57;;;;;;;17.57;10.43;;;-2.60;99.90;;;;;;5057865;28;20253;-84
2023/02/07 03:07:41;;;;;;;18.00;10.80;;;-2.60;99.90;;;;;;5057955;28;20199;-84
2023/02/07 03:10:17;;;;;;;20.47;11.63;;;-2.50;99.90;;;;;;5058405;28;20294;-84
2023/02/07 03:12:51;;;;;;;18.40;10.70;;;-2.40;99.90;;;;;;5057722;28;20306;-84
2023/02/07 03:15:27;;;;;;;16.97;9.90;;;-2.70;99.90;;;;;;5058236;28;20279;-84
2023/02/07 03:17:59;;;;;;;20.10;12.10;;;-2.80;99.90;;;;;;5058213;28;20255;-84
2023/02/07 03:20:30;;;;;;;19.97;11.07;;;-2.80;99.90;;;;;;5057662;28;20285;-84
2023/02/07 03:23:00;;;;;;;16.50;9.80;;;-2.80;99.90;;;;;;5058028;28;20231;-84
2023/02/07 03:25:29;;;;;;;17.70;10.30;;;-2.90;99.90;;;;;;5038673;28;20306;-84
2023/02/07 03:27:56;;;;;;;18.17;11.17;;;-2.90;99.90;;;;;;5057380;28;20282;-84
2023/02/07 03:30:28;;;;;;;20.80;11.97;;;-2.90;99.90;;;;;;5045443;28;20263;-84
2023/02/07 03:32:59;;;;;;;19.87;11.77;;;-2.90;99.90;;;;;;5056150;28;20215;-85
2023/02/07 03:35:29;;;;;;;19.87;11.43;;;-3.00;99.90;;;;;;5058053;28;20222;-83
2023/02/07 03:38:00;;;;;;;18.80;11.13;;;-2.90;99.90;;;;;;5055399;28;20202;-85
2023/02/07 03:40:30;;;;;;;20.97;12.57;;;-3.00;99.90;;;;;;5056400;28;20234;-85
2023/02/07 03:43:02;;;;;;;20.40;12.07;;;-3.00;99.90;;;;;;5055346;28;20222;-84
2023/02/07 03:45:29;;;;;;;19.33;11.77;;;-2.90;99.90;;;;;;5055506;28;20222;-85
2023/02/07 03:47:56;;;;;;;21.23;11.90;;;-3.00;99.90;;;;;;5055549;28;20247;-83
2023/02/07 03:50:23;;;;;;;19.83;11.83;;;-3.00;99.90;;;;;;5053559;28;20209;-85
2023/02/07 03:52:50;;;;;;;19.07;11.63;;;-3.20;99.90;;;;;;5055650;28;20238;-85
2023/02/07 03:55:19;;;;;;;20.17;12.03;;;-3.10;99.90;;;;;;5063591;28;20225;-85
2023/02/07 03:57:46;;;;;;;18.97;11.33;;;-3.20;99.90;;;;;;5061910;28;20277;-85
2023/02/07 04:00:14;;;;;;;19.40;12.20;;;-3.20;99.90;;;;;;5054020;28;20295;-86
2023/02/07 04:02:41;;;;;;;19.73;11.93;;;-3.30;99.90;;;;;;5059620;28;20226;-85
2023/02/07 04:05:08;;;;;;;21.07;12.80;;;-3.30;99.90;;;;;;5059662;28;20619;-84
2023/02/07 04:07:35;;;;;;;20.30;12.30;;;-3.20;99.90;;;;;;5059245;28;20199;-85
2023/02/07 04:10:02;;;;;;;21.53;12.73;;;-3.30;99.90;;;;;;5058449;28;20741;-85
2023/02/07 04:12:31;;;;;;;22.83;13.73;;;-3.20;99.90;;;;;;5059555;28;20223;-85
2023/02/07 04:14:58;;;;;;;24.50;13.87;;;-3.10;99.90;;;;;;5059192;28;20199;-85
2023/02/07 04:17:25;;;;;;;21.57;12.60;;;-3.10;99.90;;;;;;5060373;28;20207;-83
2023/02/07 04:19:53;;;;;;;20.70;11.93;;;-3.20;99.90;;;;;;5078245;28;20554;-81
2023/02/07 04:22:20;;;;;;;21.13;12.20;;;-3.30;99.90;;;;;;5062476;28;20245;-82
2023/02/07 04:24:47;;;;;;;21.27;12.53;;;-3.50;99.90;;;;;;5055927;28;20219;-89
2023/02/07 04:27:14;;;;;;;22.00;12.70;;;-3.50;99.90;;;;;;5058376;28;20667;-83
2023/02/07 04:29:42;;;;;;;22.97;13.13;;;-3.40;99.90;;;;;;5055632;28;20195;-83
2023/02/07 04:32:09;;;;;;;27.23;16.70;;;-3.30;99.90;;;;;;5055860;28;20686;-83
2023/02/07 04:34:36;;;;;;;29.50;16.63;;;-3.20;99.90;;;;;;5055695;28;20285;-83
2023/02/07 04:37:03;;;;;;;30.40;15.77;;;-3.20;99.90;;;;;;5037050;28;20289;-83
2023/02/07 04:39:30;;;;;;;30.73;15.50;;;-3.40;99.90;;;;;;5038270;28;20302;-83
2023/02/07 04:41:57;;;;;;;28.50;15.93;;;-3.40;99.90;;;;;;5057042;28;20313;-83
2023/02/07 04:44:24;;;;;;;30.20;15.87;;;-3.20;99.90;;;;;;5056140;28;20219;-83
2023/02/07 04:46:52;;;;;;;26.30;14.73;;;-3.10;99.90;;;;;;5056489;28;20232;-83
2023/02/07 04:49:19;;;;;;;26.03;15.17;;;-3.30;99.90;;;;;;5055780;28;20290;-83
2023/02/07 04:51:46;;;;;;;26.47;14.97;;;-3.40;99.90;;;;;;5054581;28;20223;-83
2023/02/07 04:54:12;;;;;;;28.40;14.70;;;-3.40;99.90;;;;;;5057258;28;20722;-83
2023/02/07 04:56:39;;;;;;;25.60;14.60;;;-3.40;99.90;;;;;;5056813;28;20305;-83
2023/02/07 04:59:06;;;;;;;26.97;14.83;;;-3.40;99.90;;;;;;5055384;28;20228;-83
2023/02/07 05:01:33;;;;;;;27.33;14.10;;;-3.50;99.90;;;;;;5057775;28;20265;-83
2023/02/07 05:04:01;;;;;;;23.97;14.23;;;-3.50;99.90;;;;;;5060639;28;20205;-83
2023/02/07 05:06:28;;;;;;;24.00;13.17;;;-3.60;99.90;;;;;;5054499;28;20237;-83
2023/02/07 05:08:55;;;;;;;25.10;13.03;;;-3.60;99.90;;;;;;5055683;28;20211;-83
2023/02/07 05:11:22;;;;;;;27.73;14.67;;;-3.60;99.90;;;;;;5056501;28;20226;-83
2023/02/07 05:13:49;;;;;;;25.97;14.27;;;-3.60;99.90;;;;;;5055551;28;20207;-83
2023/02/07 05:16:16;;;;;;;25.57;14.23;;;-3.50;99.90;;;;;;5063722;28;20194;-83
2023/02/07 05:18:43;;;;;;;24.30;14.23;;;-3.70;99.90;;;;;;5075477;28;20198;-83
2023/02/07 05:21:11;;;;;;;24.83;13.87;;;-3.70;99.90;;;;;;5058732;28;20590;-84
2023/02/07 05:23:38;;;;;;;25.10;13.70;;;-3.60;99.90;;;;;;5055077;28;20199;-83
2023/02/07 05:26:05;;;;;;;23.73;13.73;;;-3.70;99.90;;;;;;5055655;28;20229;-83
2023/02/07 05:28:32;;;;;;;22.80;13.73;;;-3.60;99.90;;;;;;5055526;28;20365;-83
2023/02/07 05:30:59;;;;;;;23.27;14.13;;;-3.60;99.90;;;;;;5055017;28;20322;-83
2023/02/07 05:33:25;;;;;;;22.20;13.73;;;-3.70;99.90;;;;;;5054965;28;20623;-83
2023/02/07 05:35:51;;;;;;;23.57;13.77;;;-3.90;99.90;;;;;;5056289;28;20262;-83
2023/02/07 05:38:20;;;;;;;21.67;13.40;;;-4.10;99.90;;;;;;5054705;28;20211;-83
2023/02/07 05:40:48;;;;;;;22.27;12.93;;;-4.10;99.90;;;;;;5055870;28;20671;-83
2023/02/07 05:43:15;;;;;;;21.83;12.90;;;-4.20;99.90;;;;;;5055223;28;20519;-84
2023/02/07 05:45:44;;;;;;;22.90;13.27;;;-4.10;99.90;;;;;;5053833;28;20623;-83
2023/02/07 05:48:11;;;;;;;20.67;12.50;;;-4.30;99.90;;;;;;5054921;28;20578;-83
2023/02/07 05:50:38;;;;;;;21.20;12.17;;;-4.30;99.90;;;;;;5055973;28;20297;-83
2023/02/07 05:53:05;;;;;;;23.50;14.00;;;-4.20;99.90;;;;;;5055545;28;20211;-83
2023/02/07 05:55:34;;;;;;;20.53;12.33;;;-4.10;99.90;;;;;;5054629;28;20666;-83
2023/02/07 05:58:00;;;;;;;22.40;12.67;;;-4.10;99.90;;;;;;5055967;28;20209;-83
2023/02/07 06:00:28;;;;;;;20.87;12.57;;;-4.20;99.90;;;;;;5061774;28;20225;-83
2023/02/07 06:02:54;;;;;;;21.23;12.67;;;-4.30;99.90;;;;;;5061479;28;20301;-83
2023/02/07 06:05:21;;;;;;;22.53;13.07;;;-4.40;99.90;;;;;;5054862;28;20575;-83
2023/02/07 06:07:50;;;;;;;24.80;14.03;;;-4.10;99.90;;;;;;5054638;28;20242;-83
2023/02/07 06:10:16;;;;;;;21.37;13.47;;;-3.90;99.90;;;;;;5055380;28;20689;-83
2023/02/07 06:12:45;;;;;;;24.07;14.47;;;-3.80;99.90;;;;;;5055407;28;20597;-83
2023/02/07 06:15:11;;;;;;;22.43;13.20;;;-3.90;99.90;;;;;;5054355;28;20734;-83
2023/02/07 06:17:38;;;;;;;22.13;13.83;;;-4.00;99.90;;;;;;5055574;28;20226;-83
2023/02/07 06:20:06;;;;;;;22.30;13.33;;;-3.90;99.90;;;;;;5054057;28;20220;-83
2023/02/07 06:22:33;;;;;;;25.13;15.03;;;-4.10;99.90;;;;;;5058256;28;20214;-83
2023/02/07 06:24:59;;;;;;;24.40;14.33;;;-3.80;99.90;;;;;;5067864;28;20903;-83
2023/02/07 06:27:26;;;;;;;23.43;14.13;;;-3.60;99.90;;;;;;5062671;28;20298;-83
2023/02/07 06:29:54;;;;;;;25.87;15.50;;;-3.40;99.90;;;;;;5067944;28;20233;-83
2023/02/07 06:32:21;;;;;;;27.67;15.87;;;-3.40;99.90;;;;;;5057219;28;20697;-83
2023/02/07 06:34:48;;;;;;;25.97;15.83;;;-3.40;99.90;;;;;;5054359;28;20201;-84
2023/02/07 06:37:15;;;;;;;26.70;15.83;;;-3.40;99.90;;;;;;5054099;28;20286;-83
2023/02/07 06:39:41;;;;;;;25.73;15.70;;;-3.50;99.90;;;;;;5055359;28;20222;-83
2023/02/07 06:42:08;;;;;;;26.07;16.07;;;-3.40;99.90;;;;;;5055747;28;20564;-83
2023/02/07 06:44:35;;;;;;;25.83;15.13;;;-3.40;99.90;;;;;;5054711;28;20298;-83
2023/02/07 06:47:03;;;;;;;27.13;17.13;;;-3.40;99.90;;;;;;5053918;28;20206;-84
2023/02/07 06:49:30;;;;;;;27.80;16.57;;;-3.40;99.90;;;;;;5063711;28;20233;-83
2023/02/07 06:51:57;;;;;;;25.60;14.97;;;-3.30;99.90;;;;;;5054662;28;20374;-83
2023/02/07 06:54:24;;;;;;;24.30;14.13;;;-3.40;99.90;;;;;;5054360;28;20290;-84
2023/02/07 06:56:51;;;;;;;24.43;13.90;;;-3.50;99.90;;;;;;5054748;28;20756;-83
2023/02/07 06:59:18;;;;;;;24.60;14.77;;;-3.50;99.90;;;;;;5053708;28;20589;-83
2023/02/07 07:01:44;;;;;;;27.83;16.10;;;-3.40;99.90;;;;;;5054490;28;20245;-83
2023/02/07 07:04:12;;;;;;;27.67;16.80;;;-3.30;99.90;;;;;;5055623;28;20705;-83
2023/02/07 07:06:39;;;;;;;25.83;15.20;;;-3.30;99.90;;;;;;5054858;28;20257;-83
2023/02/07 07:09:06;;;;;;;25.87;16.27;;;-3.10;99.90;;;;;;5054191;28;20245;-84
2023/02/07 07:11:33;;;;;;;26.17;14.97;;;-3.20;99.90;;;;;;5054824;28;20759;-83
2023/02/07 07:14:01;;;;;;;26.33;14.83;;;-3.30;99.90;;;;;;5054152;28;20305;-83
2023/02/07 07:16:28;;;;;;;23.80;15.03;;;-3.30;99.90;;;;;;5054585;28;20305;-83
2023/02/07 07:18:55;;;;;;;22.87;14.40;;;-3.40;99.90;;;;;;5054589;28;20203;-84
2023/02/07 07:21:23;;;;;;;25.70;14.77;;;-3.50;99.90;;;;;;5053977;28;20322;-83
2023/02/07 07:23:49;;;;;;;22.27;13.00;;;-3.60;99.90;;;;;;5054155;28;20667;-84
2023/02/07 07:26:16;;;;;;;23.27;14.30;;;-3.80;99.90;;;;;;5053318;28;20620;-83
2023/02/07 07:28:43;;;;;;;23.90;14.43;;;-3.80;99.90;;;;;;5053924;28;20285;-83
2023/02/07 07:31:10;;;;;;;23.37;14.50;;;-3.60;99.90;;;;;;5053832;28;20254;-83
2023/02/07 07:33:37;;;;;;;24.17;14.73;;;-3.40;99.90;;;;;;5054031;28;20726;-83
2023/02/07 07:36:04;;;;;;;24.20;15.07;;;-3.70;99.90;;;;;;5053467;28;20297;-83
2023/02/07 07:38:33;;;;;;;24.10;15.10;;;-3.70;99.90;;;;;;5054893;28;20271;-83
2023/02/07 07:41:00;;;;;;;25.73;15.07;;;-3.60;99.90;;;;;;5053091;28;20718;-83
2023/02/07 07:43:27;;;;;;;25.27;14.80;;;-3.60;99.90;;;;;;5054828;28;20290;-83
2023/02/07 07:45:56;;;;;;;24.40;14.87;;;-3.70;99.90;;;;;;5060706;28;20317;-83
2023/02/07 07:48:24;;;;;;;25.13;14.83;;;-3.50;99.90;;;;;;5054226;28;20574;-83
2023/02/07 07:50:51;;;;;;;25.23;14.63;;;-3.40;99.90;;;;;;5054722;28;20213;-83
2023/02/07 07:53:19;;;;;;;24.57;14.77;;;-3.30;99.90;;;;;;5054087;28;20291;-83
2023/02/07 07:55:50;;;;;;;30.43;16.53;;;-3.00;99.90;;;;;;5053758;28;20270;-83
2023/02/07 07:58:17;;;;;;;23.80;14.63;;;-2.70;99.90;;;;;;5053629;28;20290;-83
2023/02/07 08:00:44;;;;;;;23.17;15.17;;;-2.50;99.90;;;;;;5054609;28;20722;-84
2023/02/07 08:03:12;;;;;;;25.17;15.20;;;-2.30;99.90;;;;;;5054541;28;20203;-83
2023/02/07 08:05:39;;;;;;;24.90;15.17;;;-2.10;99.90;;;;;;5054832;28;20219;-84
2023/02/07 08:08:05;;;;;;;23.27;14.03;;;-1.70;99.90;;;;;;5055772;28;20746;-83
2023/02/07 08:10:33;;;;;;;23.80;14.17;;;-1.20;99.90;;;;;;5055368;28;20207;-83
2023/02/07 08:13:01;;;;;;;22.17;13.33;;;-1.30;99.90;;;;;;5054457;28;20238;-83
2023/02/07 08:15:28;;;;;;;26.63;13.03;;;-1.30;99.90;;;;;;5072697;28;20642;-84
2023/02/07 08:17:55;;;;;;;25.17;13.37;;;-1.20;99.90;;;;;;5066873;28;20203;-83
2023/02/07 08:20:22;;;;;;;24.53;13.20;;;-1.50;99.90;;;;;;5054441;28;20242;-83
2023/02/07 08:22:49;;;;;;;23.13;12.17;;;-1.80;99.90;;;;;;5054634;28;20711;-83
2023/02/07 08:25:16;;;;;;;22.30;12.00;;;-1.80;99.90;;;;;;5054321;28;20226;-83
2023/02/07 08:27:43;;;;;;;24.37;13.33;;;-2.00;99.90;;;;;;5054923;28;20313;-83
2023/02/07 08:30:14;;;;;;;22.70;12.73;;;-1.80;99.90;;;;;;5053900;28;20649;-83
2023/02/07 08:32:41;;;;;;;25.47;13.77;;;-1.50;99.90;;;;;;5052851;28;20249;-84
2023/02/07 08:35:09;;;;;;;25.30;13.73;;;-1.50;99.90;;;;;;5053768;28;20290;-84
2023/02/07 08:37:36;;;;;;;25.90;16.00;;;-0.90;99.90;;;;;;5053093;28;20225;-83
2023/02/07 08:40:04;;;;;;;26.87;15.03;;;-0.10;99.90;;;;;;5054402;28;20310;-84
2023/02/07 08:42:31;;;;;;;24.80;13.13;;;0.60;99.90;;;;;;5053858;28;20230;-83
2023/02/07 08:44:58;;;;;;;25.83;14.00;;;0.70;99.90;;;;;;5054174;28;20293;-83
2023/02/07 08:47:26;;;;;;;21.27;11.67;;;0.40;99.90;;;;;;5055139;28;20317;-84
2023/02/07 08:49:53;;;;;;;23.07;13.03;;;0.30;99.90;;;;;;5056221;28;20199;-84
2023/02/07 08:52:19;;;;;;;23.20;13.33;;;0.60;99.90;;;;;;5057781;28;20227;-84
2023/02/07 08:54:46;;;;;;;21.40;11.60;;;0.90;99.90;;;;;;5058146;28;20235;-83
2023/02/07 08:57:13;;;;;;;22.93;12.60;;;0.60;99.90;;;;;;5058623;28;20294;-83
2023/02/07 08:59:40;;;;;;;22.20;12.87;;;0.40;99.90;;;;;;5057953;28;20213;-83
2023/02/07 09:02:07;;;;;;;22.93;12.63;;;0.50;99.90;;;;;;5057276;28;20288;-83
2023/02/07 09:04:36;;;;;;;23.37;11.93;;;0.40;99.90;;;;;;5057744;28;20652;-83
2023/02/07 09:07:03;;;;;;;24.33;11.90;;;0.80;99.90;;;;;;5056986;28;20309;-83
2023/02/07 09:09:32;;;;;;;23.10;12.07;;;0.30;99.90;;;;;;5057787;28;20201;-84
2023/02/07 09:11:59;;;;;;;25.67;13.10;;;1.00;99.90;;;;;;5057476;28;20211;-83
2023/02/07 09:14:26;;;;;;;23.57;11.93;;;1.20;99.90;;;;;;5057266;28;20237;-84
2023/02/07 09:16:53;;;;;;;22.00;12.10;;;1.50;99.90;;;;;;5057415;28;20207;-83
2023/02/07 09:19:19;;;;;;;21.50;11.60;;;1.50;99.90;;;;;;5057339;28;20218;-84
2023/02/07 09:21:48;;;;;;;23.80;12.07;;;2.00;99.90;;;;;;5057121;28;20651;-84
2023/02/07 09:24:14;;;;;;;21.80;12.47;;;1.80;99.90;;;;;;5057050;28;20719;-84
2023/02/07 09:26:41;;;;;;;25.30;12.77;;;1.70;99.90;;;;;;5057018;28;20219;-84
2023/02/07 09:29:11;;;;;;;21.87;12.20;;;1.90;99.90;;;;;;5057321;28;20731;-84
2023/02/07 09:31:38;;;;;;;22.00;12.33;;;1.10;99.90;;;;;;5056895;28;20656;-83
2023/02/07 09:34:05;;;;;;;24.20;12.77;;;0.60;99.90;;;;;;5056869;28;20297;-84
2023/02/07 09:36:32;;;;;;;24.77;12.97;;;0.50;99.90;;;;;;5057072;28;20203;-83
2023/02/07 09:39:01;;;;;;;24.57;13.30;;;0.50;99.90;;;;;;5057167;28;20210;-83
2023/02/07 09:41:36;;;;;;;26.93;13.70;;;0.40;99.90;;;;;;5056928;28;20223;-83
2023/02/07 09:44:11;;;;;;;24.03;12.80;;;0.60;99.90;;;;;;5056896;28;20726;-84
2023/02/07 09:46:43;;;;;;;24.77;13.63;;;0.70;99.90;;;;;;5056631;28;20222;-83
2023/02/07 09:49:22;;;;;;;23.10;12.87;;;0.80;99.90;;;;;;5057187;28;20209;-83
2023/02/07 09:51:50;;;;;;;24.90;13.17;;;0.80;99.90;;;;;;5056529;28;20230;-83
2023/02/07 09:54:24;;;;;;;24.60;13.47;;;0.70;99.90;;;;;;5056480;28;20234;-83
2023/02/07 09:56:54;;;;;;;24.47;12.80;;;0.80;99.90;;;;;;5057074;28;20198;-84
2023/02/07 09:59:27;;;;;;;24.23;14.30;;;1.00;99.90;;;;;;5055916;28;20286;-84
2023/02/07 10:01:59;;;;;;;24.77;14.53;;;1.10;99.90;;;;;;5056085;28;20246;-84
2023/02/07 10:04:36;;;;;;;22.83;12.90;;;1.20;99.90;;;;;;5056335;28;20210;-83
2023/02/07 10:07:07;;;;;;;24.83;12.93;;;1.40;99.90;;;;;;5056199;28;20313;-83
2023/02/07 10:09:39;;;;;;;21.57;12.47;;;1.70;99.90;;;;;;5056792;28;20212;-85
2023/02/07 10:12:25;;;;;;;21.77;13.10;;;1.70;99.90;;;;;;5056307;28;20314;-84
2023/02/07 10:15:09;;;;;;;26.07;13.53;;;1.70;99.90;;;;;;5056694;28;20213;-84
2023/02/07 10:17:51;;;;;;;23.40;12.50;;;1.60;99.90;;;;;;5056518;28;20671;-85
2023/02/07 10:20:37;;;;;;;22.73;12.33;;;1.90;99.90;;;;;;5056662;28;20302;-84
2023/02/07 10:23:18;;;;;;;23.70;14.00;;;1.70;99.90;;;;;;5056673;28;20249;-84
2023/02/07 10:25:59;;;;;;;22.17;12.93;;;2.00;99.90;;;;;;5056176;28;20241;-84
2023/02/07 10:29:05;;;;;;;23.60;12.53;;;2.30;99.90;;;;;;5056287;28;20206;-84
2023/02/07 10:31:34;;;;;;;23.07;12.37;;;2.50;99.90;;;;;;5055847;28;20627;-84
2023/02/07 10:34:09;;;;;;;22.83;12.47;;;2.80;99.90;;;;;;5048606;28;20294;-84
2023/02/07 10:36:36;;;;;;;22.53;12.63;;;2.80;99.90;;;;;;5056568;28;20206;-84
2023/02/07 10:39:07;;;;;;;21.80;12.20;;;3.00;99.90;;;;;;5061954;28;20198;-85
2023/02/07 10:41:37;;;;;;;23.87;13.60;;;2.90;99.90;;;;;;5060851;28;20649;-84
2023/02/07 10:44:09;;;;;;;23.87;13.13;;;2.60;99.90;;;;;;5049523;28;20205;-84
2023/02/07 10:46:37;;;;;;;27.23;13.17;;;2.50;99.90;;;;;;5061600;28;20309;-86
2023/02/07 10:49:04;;;;;;;24.90;13.53;;;2.60;99.90;;;;;;5054601;28;20639;-85
2023/02/07 10:51:34;;;;;;;24.60;14.20;;;2.50;99.90;;;;;;5055450;28;20215;-84
2023/02/07 10:54:07;;;;;;;23.57;13.07;;;2.60;99.90;;;;;;5055049;28;20247;-84
2023/02/07 10:56:40;;;;;;;20.93;12.17;;;2.70;99.90;;;;;;5056036;28;20260;-84
2023/02/07 10:59:36;;;;;;;23.77;12.47;;;2.60;99.90;;;;;;5053592;28;20295;-84
2023/02/07 11:02:22;;;;;;;22.67;12.50;;;2.70;99.90;;;;;;5053975;28;20238;-84
2023/02/07 11:04:49;;;;;;;25.53;13.90;;;2.80;99.90;;;;;;5055454;28;20227;-84
2023/02/07 11:07:16;;;;;;;24.97;13.17;;;2.70;99.90;;;;;;5053925;28;20218;-84
2023/02/07 11:09:43;;;;;;;25.43;14.17;;;2.80;99.90;;;;;;5055268;28;20227;-84
2023/02/07 11:12:18;;;;;;;24.57;13.67;;;2.80;99.90;;;;;;5054941;28;20342;-84
2023/02/07 11:15:01;;;;;;;23.63;12.93;;;2.80;99.90;;;;;;5035837;28;20270;-84
2023/02/07 11:17:28;;;;;;;25.90;13.40;;;2.70;99.90;;;;;;5033770;28;20208;-84
2023/02/07 11:19:55;;;;;;;26.00;14.20;;;2.70;99.90;;;;;;5041933;28;20655;-84
2023/02/07 11:22:24;;;;;;;24.10;12.97;;;2.70;99.90;;;;;;5054164;28;20313;-84
2023/02/07 11:24:59;;;;;;;24.67;13.10;;;2.70;99.90;;;;;;5057138;28;20254;-84
2023/02/07 11:27:27;;;;;;;25.30;12.40;;;2.70;99.90;;;;;;5066743;28;20229;-84
2023/02/07 11:29:58;;;;;;;23.40;13.70;;;2.80;99.90;;;;;;5072804;28;20304;-84
2023/02/07 11:32:26;;;;;;;26.67;13.43;;;2.80;99.90;;;;;;5054265;28;20306;-84
2023/02/07 11:34:56;;;;;;;23.53;12.90;;;2.90;99.90;;;;;;5054586;28;20279;-84
2023/02/07 11:37:31;;;;;;;22.27;11.17;;;2.90;99.90;;;;;;5053577;28;20202;-84
2023/02/07 11:40:24;;;;;;;22.03;12.73;;;2.90;99.90;;;;;;5055025;28;20202;-84
2023/02/07 11:42:59;;;;;;;21.27;11.67;;;2.90;99.90;;;;;;5054673;28;20223;-84
2023/02/07 11:45:27;;;;;;;20.97;11.00;;;3.00;99.90;;;;;;5052880;28;20293;-84
2023/02/07 11:47:56;;;;;;;24.33;12.23;;;2.90;99.90;;;;;;5054280;28;20691;-84
2023/02/07 11:50:26;;;;;;;23.13;11.73;;;3.00;99.90;;;;;;5054916;28;20234;-84
2023/02/07 11:52:55;;;;;;;20.37;11.90;;;3.00;99.90;;;;;;5052918;28;20598;-84
2023/02/07 11:55:25;;;;;;;21.97;11.20;;;3.10;99.90;;;;;;5052867;28;20242;-84
2023/02/07 11:57:56;;;;;;;21.97;11.53;;;3.10;99.90;;;;;;5052595;28;20282;-84
2023/02/07 12:00:25;;;;;;;20.27;11.10;;;3.20;99.90;;;;;;5053232;28;20260;-84
2023/02/07 12:03:00;;;;;;;20.97;11.03;;;3.30;99.90;;;;;;5053727;28;20215;-84
2023/02/07 12:05:31;;;;;;;22.57;12.03;;;3.30;99.90;;;;;;5053764;28;20221;-84
2023/02/07 12:08:00;;;;;;;20.73;10.87;;;3.30;99.90;;;;;;5054858;28;20263;-84
2023/02/07 12:10:32;;;;;;;20.03;10.63;;;3.40;99.90;;;;;;5054066;28;20215;-84
2023/02/07 12:13:04;;;;;;;19.37;10.00;;;3.50;99.90;;;;;;5055763;28;20734;-84
2023/02/07 12:15:37;;;;;;;20.43;10.90;;;3.70;99.90;;;;;;5053080;28;20571;-84
2023/02/07 12:18:11;;;;;;;18.73;10.50;;;3.80;99.90;;;;;;5054646;28;20293;-84
2023/02/07 12:20:44;;;;;;;18.20;10.20;;;3.50;99.90;;;;;;5053659;28;20202;-84
2023/02/07 12:23:22;;;;;;;18.63;10.10;;;3.90;99.90;;;;;;5056607;28;20202;-84
2023/02/07 12:25:54;;;;;;;17.57;9.53;;;4.00;99.90;;;;;;5057757;28;20214;-84
2023/02/07 12:28:30;;;;;;;19.87;9.83;;;4.10;99.90;;;;;;5057618;28;20260;-84
2023/02/07 12:31:01;;;;;;;19.43;10.27;;;5.00;99.90;;;;;;5069854;28;20205;-84
2023/02/07 12:33:36;;;;;;;17.10;9.80;;;6.50;99.90;;;;;;5065105;28;20207;-84
2023/02/07 12:36:10;;;;;;;19.00;10.60;;;7.70;99.90;;;;;;5056988;28;20449;-84
2023/02/07 12:38:42;;;;;;;19.93;10.30;;;7.20;99.90;;;;;;5056477;28;20211;-84
2023/02/07 12:41:14;;;;;;;20.17;9.80;;;6.40;99.90;;;;;;5057667;28;20222;-84
2023/02/07 12:43:48;;;;;;;17.97;10.20;;;6.60;99.90;;;;;;5056030;28;20207;-84
2023/02/07 12:46:35;;;;;;;18.60;10.13;;;6.80;99.90;;;;;;5057173;28;20237;-84